sensor_id;sensor_type;location;lat;lon;timestamp;temperature;humidity
48604;DHT22;32708;51.212;6.788;2023-01-10T00:00:42;7.20;99.90
48604;DHT22;32708;51.212;6.788;2023-01-10T00:03:10;7.20;99.90
48604;DHT22;32708;51.212;6.788;2023-01-10T00:05:38;7.10;99.90
48604;DHT22;32708;51.212;6.788;2023-01-10T00:08:05;7.20;99.90
48604;DHT22;32708;51.212;6.788;2023-01-10T00:10:34;7.20;99.90
48604;DHT22;32708;51.212;6.788;2023-01-10T00:13:00;7.20;99.90
48604;DHT22;32708;51.212;6.788;2023-01-10T00:15:45;7.20;99.90
48604;DHT22;32708;51.212;6.788;2023-01-10T00:18:14;7.10;99.90
48604;DHT22;32708;51.212;6.788;2023-01-10T00:20:40;7.10;99.90
48604;DHT22;32708;51.212;6.788;2023-01-10T00:23:07;7.20;99.90
48604;DHT22;32708;51.212;6.788;2023-01-10T00:25:33;7.10;99.90
48604;DHT22;32708;51.212;6.788;2023-01-10T00:28:00;7.20;99.90
48604;DHT22;32708;51.212;6.788;2023-01-10T00:30:53;7.20;99.90
48604;DHT22;32708;51.212;6.788;2023-01-10T00:33:22;7.20;99.90
48604;DHT22;32708;51.212;6.788;2023-01-10T00:35:48;7.20;99.90
48604;DHT22;32708;51.212;6.788;2023-01-10T00:38:15;7.20;99.90
48604;DHT22;32708;51.212;6.788;2023-01-10T00:40:41;7.10;99.90
48604;DHT22;32708;51.212;6.788;2023-01-10T00:43:08;7.20;99.90
48604;DHT22;32708;51.212;6.788;2023-01-10T00:45:53;7.20;99.90
48604;DHT22;32708;51.212;6.788;2023-01-10T00:48:20;7.20;99.90
48604;DHT22;32708;51.212;6.788;2023-01-10T00:50:46;7.20;99.90
48604;DHT22;32708;51.212;6.788;2023-01-10T00:53:12;7.30;99.90
48604;DHT22;32708;51.212;6.788;2023-01-10T00:55:38;7.30;99.90
48604;DHT22;32708;51.212;6.788;2023-01-10T00:58:05;7.30;99.90
48604;DHT22;32708;51.212;6.788;2023-01-10T01:00:33;7.30;99.90
48604;DHT22;32708;51.212;6.788;2023-01-10T01:02:59;7.30;99.90
48604;DHT22;32708;51.212;6.788;2023-01-10T01:05:25;7.20;99.90
48604;DHT22;32708;51.212;6.788;2023-01-10T01:07:51;7.30;99.90
48604;DHT22;32708;51.212;6.788;2023-01-10T01:10:18;7.30;99.90
48604;DHT22;32708;51.212;6.788;2023-01-10T01:12:59;7.40;99.90
48604;DHT22;32708;51.212;6.788;2023-01-10T01:15:34;7.40;99.90
48604;DHT22;32708;51.212;6.788;2023-01-10T01:18:02;7.30;99.90
48604;DHT22;32708;51.212;6.788;2023-01-10T01:20:30;7.30;99.90
48604;DHT22;32708;51.212;6.788;2023-01-10T01:22:57;7.40;99.90
48604;DHT22;32708;51.212;6.788;2023-01-10T01:25:23;7.40;99.90
48604;DHT22;32708;51.212;6.788;2023-01-10T01:27:49;7.40;99.90
48604;DHT22;32708;51.212;6.788;2023-01-10T01:30:15;7.40;99.90
48604;DHT22;32708;51.212;6.788;2023-01-10T01:32:42;7.40;99.90
48604;DHT22;32708;51.212;6.788;2023-01-10T01:35:13;7.30;99.90
48604;DHT22;32708;51.212;6.788;2023-01-10T01:37:42;7.40;99.90
48604;DHT22;32708;51.212;6.788;2023-01-10T01:40:17;7.30;99.90
48604;DHT22;32708;51.212;6.788;2023-01-10T01:42:46;7.30;99.90
48604;DHT22;32708;51.212;6.788;2023-01-10T01:48:02;7.40;99.90
48604;DHT22;32708;51.212;6.788;2023-01-10T01:50:37;7.40;99.90
48604;DHT22;32708;51.212;6.788;2023-01-10T01:53:30;7.40;99.90
48604;DHT22;32708;51.212;6.788;2023-01-10T01:56:13;7.40;99.90
48604;DHT22;32708;51.212;6.788;2023-01-10T01:59:11;7.50;99.90
48604;DHT22;32708;51.212;6.788;2023-01-10T02:01:36;7.50;99.90
48604;DHT22;32708;51.212;6.788;2023-01-10T02:04:14;7.50;99.90
48604;DHT22;32708;51.212;6.788;2023-01-10T02:06:46;7.50;99.90
48604;DHT22;32708;51.212;6.788;2023-01-10T02:09:19;7.40;99.90
48604;DHT22;32708;51.212;6.788;2023-01-10T02:11:51;7.50;99.90
48604;DHT22;32708;51.212;6.788;2023-01-10T02:14:24;7.50;99.90
48604;DHT22;32708;51.212;6.788;2023-01-10T02:16:51;7.30;99.90
48604;DHT22;32708;51.212;6.788;2023-01-10T02:34:19;7.10;99.90
48604;DHT22;32708;51.212;6.788;2023-01-10T02:39:47;7.00;99.90
48604;DHT22;32708;51.212;6.788;2023-01-10T02:45:37;7.00;99.90
48604;DHT22;32708;51.212;6.788;2023-01-10T02:48:09;6.90;99.90
48604;DHT22;32708;51.212;6.788;2023-01-10T02:50:48;7.00;99.90
48604;DHT22;32708;51.212;6.788;2023-01-10T02:53:24;7.00;99.90
48604;DHT22;32708;51.212;6.788;2023-01-10T03:05:38;6.80;99.90
48604;DHT22;32708;51.212;6.788;2023-01-10T03:08:21;6.80;99.90
48604;DHT22;32708;51.212;6.788;2023-01-10T03:11:04;6.80;99.90
48604;DHT22;32708;51.212;6.788;2023-01-10T03:13:41;6.80;99.90
48604;DHT22;32708;51.212;6.788;2023-01-10T03:16:18;6.90;99.90
48604;DHT22;32708;51.212;6.788;2023-01-10T03:18:58;6.80;99.90
48604;DHT22;32708;51.212;6.788;2023-01-10T03:21:30;6.60;99.90
48604;DHT22;32708;51.212;6.788;2023-01-10T03:24:08;6.50;99.90
48604;DHT22;32708;51.212;6.788;2023-01-10T03:26:46;6.60;99.90
48604;DHT22;32708;51.212;6.788;2023-01-10T03:29:42;6.50;99.90
48604;DHT22;32708;51.212;6.788;2023-01-10T03:32:18;6.50;99.90
48604;DHT22;32708;51.212;6.788;2023-01-10T03:34:47;6.50;99.90
48604;DHT22;32708;51.212;6.788;2023-01-10T03:37:37;6.40;99.90
48604;DHT22;32708;51.212;6.788;2023-01-10T03:40:42;6.40;99.90
48604;DHT22;32708;51.212;6.788;2023-01-10T03:43:45;6.40;99.90
48604;DHT22;32708;51.212;6.788;2023-01-10T03:47:06;6.40;99.90
48604;DHT22;32708;51.212;6.788;2023-01-10T03:49:53;6.40;99.90
48604;DHT22;32708;51.212;6.788;2023-01-10T03:52:24;6.40;99.90
48604;DHT22;32708;51.212;6.788;2023-01-10T03:54:51;6.40;99.90
48604;DHT22;32708;51.212;6.788;2023-01-10T03:57:21;6.30;99.90
48604;DHT22;32708;51.212;6.788;2023-01-10T03:59:54;6.40;99.90
48604;DHT22;32708;51.212;6.788;2023-01-10T04:02:31;6.50;99.90
48604;DHT22;32708;51.212;6.788;2023-01-10T04:04:58;6.60;99.90
48604;DHT22;32708;51.212;6.788;2023-01-10T04:07:25;6.40;99.90
48604;DHT22;32708;51.212;6.788;2023-01-10T04:09:52;6.40;99.90
48604;DHT22;32708;51.212;6.788;2023-01-10T04:12:19;6.50;99.90
48604;DHT22;32708;51.212;6.788;2023-01-10T04:14:47;6.50;99.90
48604;DHT22;32708;51.212;6.788;2023-01-10T04:17:16;6.60;99.90
48604;DHT22;32708;51.212;6.788;2023-01-10T04:19:42;6.50;99.90
48604;DHT22;32708;51.212;6.788;2023-01-10T04:22:09;6.60;99.90
48604;DHT22;32708;51.212;6.788;2023-01-10T04:24:37;6.60;99.90
48604;DHT22;32708;51.212;6.788;2023-01-10T04:27:05;6.60;99.90
48604;DHT22;32708;51.212;6.788;2023-01-10T04:29:31;6.60;99.90
48604;DHT22;32708;51.212;6.788;2023-01-10T04:31:57;6.50;99.90
48604;DHT22;32708;51.212;6.788;2023-01-10T04:34:23;6.50;99.90
48604;DHT22;32708;51.212;6.788;2023-01-10T04:36:50;6.50;99.90
48604;DHT22;32708;51.212;6.788;2023-01-10T04:39:16;6.40;99.90
48604;DHT22;32708;51.212;6.788;2023-01-10T04:41:42;6.40;99.90
48604;DHT22;32708;51.212;6.788;2023-01-10T04:44:08;6.50;99.90
48604;DHT22;32708;51.212;6.788;2023-01-10T04:46:34;6.50;99.90
48604;DHT22;32708;51.212;6.788;2023-01-10T04:49:00;6.50;99.90
48604;DHT22;32708;51.212;6.788;2023-01-10T04:51:27;6.70;99.90
48604;DHT22;32708;51.212;6.788;2023-01-10T04:53:54;6.70;99.90
48604;DHT22;32708;51.212;6.788;2023-01-10T04:56:22;6.70;99.90
48604;DHT22;32708;51.212;6.788;2023-01-10T04:58:49;6.70;99.90
48604;DHT22;32708;51.212;6.788;2023-01-10T05:01:19;6.70;99.90
48604;DHT22;32708;51.212;6.788;2023-01-10T05:03:51;6.70;99.90
48604;DHT22;32708;51.212;6.788;2023-01-10T05:06:20;6.70;99.90
48604;DHT22;32708;51.212;6.788;2023-01-10T05:08:47;6.70;99.90
48604;DHT22;32708;51.212;6.788;2023-01-10T05:11:13;6.60;99.90
48604;DHT22;32708;51.212;6.788;2023-01-10T05:13:41;6.70;99.90
48604;DHT22;32708;51.212;6.788;2023-01-10T05:16:07;6.70;99.90
48604;DHT22;32708;51.212;6.788;2023-01-10T05:18:33;6.70;99.90
48604;DHT22;32708;51.212;6.788;2023-01-10T05:21:04;6.70;99.90
48604;DHT22;32708;51.212;6.788;2023-01-10T05:23:34;6.70;99.90
48604;DHT22;32708;51.212;6.788;2023-01-10T05:26:12;6.70;99.90
48604;DHT22;32708;51.212;6.788;2023-01-10T05:28:41;6.60;99.90
48604;DHT22;32708;51.212;6.788;2023-01-10T05:31:11;6.60;99.90
48604;DHT22;32708;51.212;6.788;2023-01-10T05:33:41;6.60;99.90
48604;DHT22;32708;51.212;6.788;2023-01-10T05:36:09;6.60;99.90
48604;DHT22;32708;51.212;6.788;2023-01-10T05:38:35;6.50;99.90
48604;DHT22;32708;51.212;6.788;2023-01-10T05:41:01;6.50;99.90
48604;DHT22;32708;51.212;6.788;2023-01-10T05:43:28;6.40;99.90
48604;DHT22;32708;51.212;6.788;2023-01-10T05:45:54;6.50;99.90
48604;DHT22;32708;51.212;6.788;2023-01-10T05:48:21;6.40;99.90
48604;DHT22;32708;51.212;6.788;2023-01-10T05:50:52;6.30;99.90
48604;DHT22;32708;51.212;6.788;2023-01-10T05:53:19;6.40;99.90
48604;DHT22;32708;51.212;6.788;2023-01-10T05:55:56;6.30;99.90
48604;DHT22;32708;51.212;6.788;2023-01-10T05:58:25;6.30;99.90
48604;DHT22;32708;51.212;6.788;2023-01-10T06:00:55;6.30;99.90
48604;DHT22;32708;51.212;6.788;2023-01-10T06:03:22;6.30;99.90
48604;DHT22;32708;51.212;6.788;2023-01-10T06:05:49;6.30;99.90
48604;DHT22;32708;51.212;6.788;2023-01-10T06:08:16;6.20;99.90
48604;DHT22;32708;51.212;6.788;2023-01-10T06:10:42;6.20;99.90
48604;DHT22;32708;51.212;6.788;2023-01-10T06:13:08;6.20;99.90
48604;DHT22;32708;51.212;6.788;2023-01-10T06:15:36;6.20;99.90
48604;DHT22;32708;51.212;6.788;2023-01-10T06:18:02;6.20;99.90
48604;DHT22;32708;51.212;6.788;2023-01-10T06:20:28;6.20;99.90
48604;DHT22;32708;51.212;6.788;2023-01-10T06:22:55;6.10;99.90
48604;DHT22;32708;51.212;6.788;2023-01-10T06:25:21;6.20;99.90
48604;DHT22;32708;51.212;6.788;2023-01-10T06:27:47;6.30;99.90
48604;DHT22;32708;51.212;6.788;2023-01-10T06:30:15;6.40;99.90
48604;DHT22;32708;51.212;6.788;2023-01-10T06:32:41;6.40;99.90
48604;DHT22;32708;51.212;6.788;2023-01-10T06:35:08;6.30;99.90
48604;DHT22;32708;51.212;6.788;2023-01-10T06:37:34;6.30;99.90
48604;DHT22;32708;51.212;6.788;2023-01-10T06:40:01;6.30;99.90
48604;DHT22;32708;51.212;6.788;2023-01-10T06:42:28;6.40;99.90
48604;DHT22;32708;51.212;6.788;2023-01-10T06:44:54;6.50;99.90
48604;DHT22;32708;51.212;6.788;2023-01-10T06:47:20;6.50;99.90
48604;DHT22;32708;51.212;6.788;2023-01-10T06:49:46;6.50;99.90
48604;DHT22;32708;51.212;6.788;2023-01-10T06:52:14;6.50;99.90
48604;DHT22;32708;51.212;6.788;2023-01-10T06:54:40;6.50;99.90
48604;DHT22;32708;51.212;6.788;2023-01-10T06:57:07;6.50;99.90
48604;DHT22;32708;51.212;6.788;2023-01-10T06:59:33;6.60;99.90
48604;DHT22;32708;51.212;6.788;2023-01-10T07:02:00;6.60;99.90
48604;DHT22;32708;51.212;6.788;2023-01-10T07:04:27;6.60;99.90
48604;DHT22;32708;51.212;6.788;2023-01-10T07:06:53;6.60;99.90
48604;DHT22;32708;51.212;6.788;2023-01-10T07:09:19;6.60;99.90
48604;DHT22;32708;51.212;6.788;2023-01-10T07:11:45;6.60;99.90
48604;DHT22;32708;51.212;6.788;2023-01-10T07:14:11;6.60;99.90
48604;DHT22;32708;51.212;6.788;2023-01-10T07:16:37;6.60;99.90
48604;DHT22;32708;51.212;6.788;2023-01-10T07:19:03;6.50;99.90
48604;DHT22;32708;51.212;6.788;2023-01-10T07:21:30;6.50;99.90
48604;DHT22;32708;51.212;6.788;2023-01-10T07:23:56;6.50;99.90
48604;DHT22;32708;51.212;6.788;2023-01-10T07:26:22;6.40;99.90
48604;DHT22;32708;51.212;6.788;2023-01-10T07:28:49;6.50;99.90
48604;DHT22;32708;51.212;6.788;2023-01-10T07:31:18;6.50;99.90
48604;DHT22;32708;51.212;6.788;2023-01-10T07:33:46;6.50;99.90
48604;DHT22;32708;51.212;6.788;2023-01-10T07:36:12;6.50;99.90
48604;DHT22;32708;51.212;6.788;2023-01-10T07:38:39;6.60;99.90
48604;DHT22;32708;51.212;6.788;2023-01-10T07:41:05;6.40;99.90
48604;DHT22;32708;51.212;6.788;2023-01-10T07:43:31;6.40;99.90
48604;DHT22;32708;51.212;6.788;2023-01-10T07:46:00;6.30;99.90
48604;DHT22;32708;51.212;6.788;2023-01-10T07:48:28;6.30;99.90
48604;DHT22;32708;51.212;6.788;2023-01-10T07:50:56;6.20;99.90
48604;DHT22;32708;51.212;6.788;2023-01-10T07:53:24;6.20;99.90
48604;DHT22;32708;51.212;6.788;2023-01-10T07:55:51;6.20;99.90
48604;DHT22;32708;51.212;6.788;2023-01-10T07:58:18;6.30;99.90
48604;DHT22;32708;51.212;6.788;2023-01-10T08:00:44;6.20;99.90
48604;DHT22;32708;51.212;6.788;2023-01-10T08:03:12;6.20;99.90
48604;DHT22;32708;51.212;6.788;2023-01-10T08:05:38;6.20;99.90
48604;DHT22;32708;51.212;6.788;2023-01-10T08:08:07;6.40;99.90
48604;DHT22;32708;51.212;6.788;2023-01-10T08:10:38;6.20;99.90
48604;DHT22;32708;51.212;6.788;2023-01-10T08:13:05;6.20;99.90
48604;DHT22;32708;51.212;6.788;2023-01-10T08:15:31;6.20;99.90
48604;DHT22;32708;51.212;6.788;2023-01-10T08:18:01;6.50;99.90
48604;DHT22;32708;51.212;6.788;2023-01-10T08:20:28;6.50;99.90
48604;DHT22;32708;51.212;6.788;2023-01-10T08:22:58;6.50;99.90
48604;DHT22;32708;51.212;6.788;2023-01-10T08:25:25;6.40;99.90
48604;DHT22;32708;51.212;6.788;2023-01-10T08:27:52;6.50;99.90
48604;DHT22;32708;51.212;6.788;2023-01-10T08:30:18;6.50;99.90
48604;DHT22;32708;51.212;6.788;2023-01-10T08:32:45;6.40;99.90
48604;DHT22;32708;51.212;6.788;2023-01-10T08:35:11;6.30;99.90
48604;DHT22;32708;51.212;6.788;2023-01-10T08:37:38;6.40;99.90
48604;DHT22;32708;51.212;6.788;2023-01-10T08:40:05;6.40;99.90
48604;DHT22;32708;51.212;6.788;2023-01-10T08:42:34;6.50;99.90
48604;DHT22;32708;51.212;6.788;2023-01-10T08:45:00;6.60;99.90
48604;DHT22;32708;51.212;6.788;2023-01-10T08:47:27;6.50;99.90
48604;DHT22;32708;51.212;6.788;2023-01-10T08:49:53;6.60;99.90
48604;DHT22;32708;51.212;6.788;2023-01-10T08:52:19;6.60;99.90
48604;DHT22;32708;51.212;6.788;2023-01-10T08:54:46;6.80;99.90
48604;DHT22;32708;51.212;6.788;2023-01-10T08:57:12;6.80;99.90
48604;DHT22;32708;51.212;6.788;2023-01-10T08:59:38;6.70;99.90
48604;DHT22;32708;51.212;6.788;2023-01-10T09:02:05;6.90;99.90
48604;DHT22;32708;51.212;6.788;2023-01-10T09:04:33;6.90;99.90
48604;DHT22;32708;51.212;6.788;2023-01-10T09:06:59;6.70;99.90
48604;DHT22;32708;51.212;6.788;2023-01-10T09:09:25;6.80;99.90
48604;DHT22;32708;51.212;6.788;2023-01-10T09:11:52;6.80;99.90
48604;DHT22;32708;51.212;6.788;2023-01-10T09:14:18;6.80;99.90
48604;DHT22;32708;51.212;6.788;2023-01-10T09:16:44;6.80;99.90
48604;DHT22;32708;51.212;6.788;2023-01-10T09:19:16;7.00;99.90
48604;DHT22;32708;51.212;6.788;2023-01-10T09:21:43;6.80;99.90
48604;DHT22;32708;51.212;6.788;2023-01-10T09:24:09;6.90;99.90
48604;DHT22;32708;51.212;6.788;2023-01-10T09:26:35;7.00;99.90
48604;DHT22;32708;51.212;6.788;2023-01-10T09:29:01;6.80;99.90
48604;DHT22;32708;51.212;6.788;2023-01-10T09:31:27;7.00;99.90
48604;DHT22;32708;51.212;6.788;2023-01-10T09:33:53;7.00;99.90
48604;DHT22;32708;51.212;6.788;2023-01-10T09:36:20;7.00;99.90
48604;DHT22;32708;51.212;6.788;2023-01-10T09:38:46;7.20;99.90
48604;DHT22;32708;51.212;6.788;2023-01-10T09:44:03;7.40;99.90
48604;DHT22;32708;51.212;6.788;2023-01-10T09:46:57;7.40;99.90
48604;DHT22;32708;51.212;6.788;2023-01-10T09:52:03;7.40;99.90
48604;DHT22;32708;51.212;6.788;2023-01-10T09:54:41;7.40;99.90
48604;DHT22;32708;51.212;6.788;2023-01-10T09:57:20;7.50;99.90
48604;DHT22;32708;51.212;6.788;2023-01-10T09:59:50;7.60;99.90
48604;DHT22;32708;51.212;6.788;2023-01-10T10:05:21;7.50;99.90
48604;DHT22;32708;51.212;6.788;2023-01-10T10:07:54;7.80;99.90
48604;DHT22;32708;51.212;6.788;2023-01-10T10:10:37;7.80;99.90
48604;DHT22;32708;51.212;6.788;2023-01-10T10:18:53;7.70;99.90
48604;DHT22;32708;51.212;6.788;2023-01-10T10:31:46;8.20;99.90
48604;DHT22;32708;51.212;6.788;2023-01-10T10:40:40;8.30;99.90
48604;DHT22;32708;51.212;6.788;2023-01-10T10:42:48;8.20;99.90
48604;DHT22;32708;51.212;6.788;2023-01-10T10:45:35;8.30;99.90
48604;DHT22;32708;51.212;6.788;2023-01-10T10:48:24;8.30;99.90
48604;DHT22;32708;51.212;6.788;2023-01-10T10:53:50;8.40;99.90
48604;DHT22;32708;51.212;6.788;2023-01-10T10:56:24;8.50;99.90
48604;DHT22;32708;51.212;6.788;2023-01-10T10:58:54;8.50;99.90
48604;DHT22;32708;51.212;6.788;2023-01-10T11:01:23;8.50;99.90
48604;DHT22;32708;51.212;6.788;2023-01-10T11:06:36;8.70;99.90
48604;DHT22;32708;51.212;6.788;2023-01-10T11:09:06;8.70;99.90
48604;DHT22;32708;51.212;6.788;2023-01-10T11:11:38;9.00;99.90
48604;DHT22;32708;51.212;6.788;2023-01-10T11:14:11;9.10;99.90
48604;DHT22;32708;51.212;6.788;2023-01-10T11:16:40;9.00;99.90
48604;DHT22;32708;51.212;6.788;2023-01-10T11:21:59;8.90;99.90
48604;DHT22;32708;51.212;6.788;2023-01-10T11:24:58;8.80;99.90
48604;DHT22;32708;51.212;6.788;2023-01-10T11:27:35;8.90;99.90
48604;DHT22;32708;51.212;6.788;2023-01-10T11:30:20;8.90;99.90
48604;DHT22;32708;51.212;6.788;2023-01-10T11:33:15;9.10;99.90
48604;DHT22;32708;51.212;6.788;2023-01-10T11:36:04;9.20;99.90
48604;DHT22;32708;51.212;6.788;2023-01-10T11:38:38;9.40;99.90
48604;DHT22;32708;51.212;6.788;2023-01-10T11:41:22;9.40;99.90
48604;DHT22;32708;51.212;6.788;2023-01-10T11:44:22;9.10;99.90
48604;DHT22;32708;51.212;6.788;2023-01-10T11:46:54;9.30;99.90
48604;DHT22;32708;51.212;6.788;2023-01-10T11:49:31;9.40;99.90
48604;DHT22;32708;51.212;6.788;2023-01-10T11:52:23;9.30;99.90
48604;DHT22;32708;51.212;6.788;2023-01-10T11:54:54;9.40;99.90
48604;DHT22;32708;51.212;6.788;2023-01-10T11:57:28;9.50;99.90
48604;DHT22;32708;51.212;6.788;2023-01-10T12:00:06;9.50;99.90
48604;DHT22;32708;51.212;6.788;2023-01-10T12:02:45;9.40;95.30
48604;DHT22;32708;51.212;6.788;2023-01-10T12:05:19;9.50;94.80
48604;DHT22;32708;51.212;6.788;2023-01-10T12:07:59;9.60;88.00
48604;DHT22;32708;51.212;6.788;2023-01-10T12:10:32;9.50;87.20
48604;DHT22;32708;51.212;6.788;2023-01-10T12:13:14;9.60;85.90
48604;DHT22;32708;51.212;6.788;2023-01-10T12:15:42;9.70;79.10
48604;DHT22;32708;51.212;6.788;2023-01-10T12:18:11;9.60;82.90
48604;DHT22;32708;51.212;6.788;2023-01-10T12:20:49;9.50;82.50
48604;DHT22;32708;51.212;6.788;2023-01-10T12:23:21;9.40;90.20
48604;DHT22;32708;51.212;6.788;2023-01-10T12:25:52;9.20;91.70
48604;DHT22;32708;51.212;6.788;2023-01-10T12:28:23;9.30;89.20
48604;DHT22;32708;51.212;6.788;2023-01-10T12:30:57;9.60;83.30
48604;DHT22;32708;51.212;6.788;2023-01-10T12:33:29;9.60;70.40
48604;DHT22;32708;51.212;6.788;2023-01-10T12:36:01;9.70;71.80
48604;DHT22;32708;51.212;6.788;2023-01-10T12:45:11;9.80;71.40
48604;DHT22;32708;51.212;6.788;2023-01-10T12:48:21;9.70;70.00
48604;DHT22;32708;51.212;6.788;2023-01-10T12:51:01;9.70;71.80
48604;DHT22;32708;51.212;6.788;2023-01-10T12:53:40;9.70;68.90
48604;DHT22;32708;51.212;6.788;2023-01-10T12:56:15;9.80;61.80
48604;DHT22;32708;51.212;6.788;2023-01-10T12:58:49;9.70;57.60
48604;DHT22;32708;51.212;6.788;2023-01-10T13:01:29;9.70;54.90
48604;DHT22;32708;51.212;6.788;2023-01-10T13:04:09;9.80;50.50
48604;DHT22;32708;51.212;6.788;2023-01-10T13:06:41;9.80;50.50
48604;DHT22;32708;51.212;6.788;2023-01-10T13:09:20;9.80;47.50
48604;DHT22;32708;51.212;6.788;2023-01-10T13:12:20;9.60;61.00
48604;DHT22;32708;51.212;6.788;2023-01-10T13:15:33;9.70;52.40
48604;DHT22;32708;51.212;6.788;2023-01-10T13:18:33;9.70;54.10
48604;DHT22;32708;51.212;6.788;2023-01-10T13:21:12;9.60;59.00
48604;DHT22;32708;51.212;6.788;2023-01-10T13:23:48;9.60;65.00
48604;DHT22;32708;51.212;6.788;2023-01-10T13:26:17;9.50;64.60
48604;DHT22;32708;51.212;6.788;2023-01-10T13:28:57;9.60;57.70
48604;DHT22;32708;51.212;6.788;2023-01-10T13:31:33;9.60;57.70
48604;DHT22;32708;51.212;6.788;2023-01-10T13:34:12;9.60;59.30
48604;DHT22;32708;51.212;6.788;2023-01-10T13:36:49;9.50;61.90
48604;DHT22;32708;51.212;6.788;2023-01-10T13:39:39;9.40;69.10
48604;DHT22;32708;51.212;6.788;2023-01-10T13:42:30;9.40;63.70
48604;DHT22;32708;51.212;6.788;2023-01-10T13:45:27;9.40;59.10
48604;DHT22;32708;51.212;6.788;2023-01-10T13:52:51;9.40;60.50
48604;DHT22;32708;51.212;6.788;2023-01-10T14:00:47;9.30;61.60
48604;DHT22;32708;51.212;6.788;2023-01-10T14:11:54;9.50;60.60
48604;DHT22;32708;51.212;6.788;2023-01-10T14:19:40;9.10;72.20
48604;DHT22;32708;51.212;6.788;2023-01-10T14:22:33;9.20;64.30
48604;DHT22;32708;51.212;6.788;2023-01-10T14:25:05;9.10;69.90
48604;DHT22;32708;51.212;6.788;2023-01-10T14:27:45;9.10;60.20
48604;DHT22;32708;51.212;6.788;2023-01-10T14:30:24;9.00;65.30
48604;DHT22;32708;51.212;6.788;2023-01-10T14:32:57;9.00;68.90
48604;DHT22;32708;51.212;6.788;2023-01-10T14:35:37;8.90;74.30
48604;DHT22;32708;51.212;6.788;2023-01-10T14:38:26;8.80;75.50
48604;DHT22;32708;51.212;6.788;2023-01-10T14:41:16;8.80;77.40
48604;DHT22;32708;51.212;6.788;2023-01-10T14:43:54;8.80;75.80
48604;DHT22;32708;51.212;6.788;2023-01-10T14:46:40;8.80;78.20
48604;DHT22;32708;51.212;6.788;2023-01-10T14:51:52;8.70;75.20
48604;DHT22;32708;51.212;6.788;2023-01-10T14:54:26;8.70;74.40
48604;DHT22;32708;51.212;6.788;2023-01-10T14:56:57;8.70;72.60
48604;DHT22;32708;51.212;6.788;2023-01-10T14:59:32;8.60;73.80
48604;DHT22;32708;51.212;6.788;2023-01-10T15:02:09;8.70;70.30
48604;DHT22;32708;51.212;6.788;2023-01-10T15:07:22;8.70;64.50
48604;DHT22;32708;51.212;6.788;2023-01-10T15:09:52;8.70;67.40
48604;DHT22;32708;51.212;6.788;2023-01-10T15:12:33;8.70;64.30
48604;DHT22;32708;51.212;6.788;2023-01-10T15:15:11;8.70;65.30
48604;DHT22;32708;51.212;6.788;2023-01-10T15:17:42;8.70;64.20
48604;DHT22;32708;51.212;6.788;2023-01-10T15:20:19;8.70;68.30
48604;DHT22;32708;51.212;6.788;2023-01-10T15:22:53;8.60;69.00
48604;DHT22;32708;51.212;6.788;2023-01-10T15:25:25;8.60;66.80
48604;DHT22;32708;51.212;6.788;2023-01-10T15:27:59;8.60;69.20
48604;DHT22;32708;51.212;6.788;2023-01-10T15:30:30;8.70;71.70
48604;DHT22;32708;51.212;6.788;2023-01-10T15:33:04;8.60;69.90
48604;DHT22;32708;51.212;6.788;2023-01-10T15:35:38;8.60;71.10
48604;DHT22;32708;51.212;6.788;2023-01-10T15:38:22;8.60;73.70
48604;DHT22;32708;51.212;6.788;2023-01-10T15:41:01;8.60;80.10
48604;DHT22;32708;51.212;6.788;2023-01-10T15:43:32;8.60;84.40
48604;DHT22;32708;51.212;6.788;2023-01-10T15:46:03;8.50;91.30
48604;DHT22;32708;51.212;6.788;2023-01-10T15:51:15;8.40;99.80
48604;DHT22;32708;51.212;6.788;2023-01-10T15:54:04;8.30;99.90
48604;DHT22;32708;51.212;6.788;2023-01-10T15:57:04;8.20;99.90
48604;DHT22;32708;51.212;6.788;2023-01-10T15:59:39;8.00;99.90
48604;DHT22;32708;51.212;6.788;2023-01-10T16:04:39;7.60;99.90
48604;DHT22;32708;51.212;6.788;2023-01-10T16:10:16;7.50;99.90
48604;DHT22;32708;51.212;6.788;2023-01-10T16:12:45;7.50;99.90
48604;DHT22;32708;51.212;6.788;2023-01-10T16:15:34;7.60;99.90
48604;DHT22;32708;51.212;6.788;2023-01-10T16:18:06;7.60;99.90
48604;DHT22;32708;51.212;6.788;2023-01-10T16:20:40;7.50;99.90
48604;DHT22;32708;51.212;6.788;2023-01-10T16:23:15;7.50;99.90
48604;DHT22;32708;51.212;6.788;2023-01-10T16:25:59;7.50;99.90
48604;DHT22;32708;51.212;6.788;2023-01-10T16:28:28;7.40;99.90
48604;DHT22;32708;51.212;6.788;2023-01-10T16:31:02;7.40;99.90
48604;DHT22;32708;51.212;6.788;2023-01-10T16:33:28;7.40;99.90
48604;DHT22;32708;51.212;6.788;2023-01-10T16:35:57;7.40;99.90
48604;DHT22;32708;51.212;6.788;2023-01-10T16:38:27;7.30;99.90
48604;DHT22;32708;51.212;6.788;2023-01-10T16:41:00;7.40;99.90
48604;DHT22;32708;51.212;6.788;2023-01-10T16:43:50;7.40;99.90
48604;DHT22;32708;51.212;6.788;2023-01-10T16:46:17;7.30;99.90
48604;DHT22;32708;51.212;6.788;2023-01-10T16:48:43;7.30;99.90
48604;DHT22;32708;51.212;6.788;2023-01-10T16:51:23;7.30;99.90
48604;DHT22;32708;51.212;6.788;2023-01-10T16:53:53;7.20;99.90
48604;DHT22;32708;51.212;6.788;2023-01-10T16:56:22;7.10;99.90
48604;DHT22;32708;51.212;6.788;2023-01-10T16:58:52;6.90;99.90
48604;DHT22;32708;51.212;6.788;2023-01-10T17:01:37;7.00;99.90
48604;DHT22;32708;51.212;6.788;2023-01-10T17:04:08;7.00;99.90
48604;DHT22;32708;51.212;6.788;2023-01-10T17:06:40;6.90;99.90
48604;DHT22;32708;51.212;6.788;2023-01-10T17:09:10;6.90;99.90
48604;DHT22;32708;51.212;6.788;2023-01-10T17:12:05;6.90;99.90
48604;DHT22;32708;51.212;6.788;2023-01-10T17:14:38;6.90;99.90
48604;DHT22;32708;51.212;6.788;2023-01-10T17:17:04;6.90;99.90
48604;DHT22;32708;51.212;6.788;2023-01-10T17:19:30;6.90;99.90
48604;DHT22;32708;51.212;6.788;2023-01-10T17:21:57;6.90;99.90
48604;DHT22;32708;51.212;6.788;2023-01-10T17:24:23;6.90;99.90
48604;DHT22;32708;51.212;6.788;2023-01-10T17:26:49;6.90;99.90
48604;DHT22;32708;51.212;6.788;2023-01-10T17:29:15;6.90;99.90
48604;DHT22;32708;51.212;6.788;2023-01-10T17:31:41;6.80;99.90
48604;DHT22;32708;51.212;6.788;2023-01-10T17:34:07;6.80;99.90
48604;DHT22;32708;51.212;6.788;2023-01-10T17:36:33;6.70;99.90
48604;DHT22;32708;51.212;6.788;2023-01-10T17:39:03;6.70;99.90
48604;DHT22;32708;51.212;6.788;2023-01-10T17:41:31;6.70;99.90
48604;DHT22;32708;51.212;6.788;2023-01-10T17:43:57;6.60;99.90
48604;DHT22;32708;51.212;6.788;2023-01-10T17:46:23;6.60;99.90
48604;DHT22;32708;51.212;6.788;2023-01-10T17:48:49;6.70;99.90
48604;DHT22;32708;51.212;6.788;2023-01-10T17:51:15;6.60;99.90
48604;DHT22;32708;51.212;6.788;2023-01-10T17:53:42;6.60;99.90
48604;DHT22;32708;51.212;6.788;2023-01-10T17:56:08;6.60;99.90
48604;DHT22;32708;51.212;6.788;2023-01-10T17:58:35;6.60;99.90
48604;DHT22;32708;51.212;6.788;2023-01-10T18:01:01;6.60;99.90
48604;DHT22;32708;51.212;6.788;2023-01-10T18:03:29;6.60;99.90
48604;DHT22;32708;51.212;6.788;2023-01-10T18:05:57;6.60;99.90
48604;DHT22;32708;51.212;6.788;2023-01-10T18:08:25;6.60;99.90
48604;DHT22;32708;51.212;6.788;2023-01-10T18:10:57;6.60;99.90
48604;DHT22;32708;51.212;6.788;2023-01-10T18:13:25;6.70;99.90